createdAt,value
2022-11-08T00:00:55.641Z,96098.69
2022-11-08T00:02:01.104Z,96108.03
2022-11-08T00:03:03.359Z,96101.16
2022-11-08T00:04:09.783Z,96111.38
2022-11-08T00:05:26.861Z,96105.28
2022-11-08T00:06:44.432Z,96099.22
2022-11-08T00:08:01.487Z,96103.25
2022-11-08T00:09:18.592Z,96103.84
2022-11-08T00:10:35.898Z,96102.91
2022-11-08T00:11:52.989Z,96099.50
2022-11-08T00:13:10.626Z,96101.22
2022-11-08T00:14:15.238Z,96096.09
2022-11-08T00:15:19.881Z,96092.63
2022-11-08T00:16:25.087Z,96098.56
2022-11-08T00:17:32.012Z,96096.81
2022-11-08T00:18:36.702Z,96094.25
2022-11-08T00:19:38.699Z,96092.59
2022-11-08T00:20:43.697Z,96094.44
2022-11-08T00:21:45.803Z,96097.84
2022-11-08T00:22:50.460Z,96095.34
2022-11-08T00:23:52.625Z,96091.91
2022-11-08T00:24:57.242Z,96097.84
2022-11-08T00:25:59.287Z,96091.13
2022-11-08T00:27:04.152Z,96097.06
2022-11-08T00:28:06.304Z,96095.44
2022-11-08T00:29:10.913Z,96093.72
2022-11-08T00:30:15.898Z,96096.19
2022-11-08T00:31:20.504Z,96102.25
2022-11-08T00:32:27.010Z,96096.38
2022-11-08T00:33:29.182Z,96092.19
2022-11-08T00:34:34.796Z,96093.09
2022-11-08T00:35:36.788Z,96098.31
2022-11-08T00:36:41.742Z,96096.75
2022-11-08T00:37:46.390Z,96093.47
2022-11-08T00:38:48.426Z,96091.00
2022-11-08T00:39:53.057Z,96093.72
2022-11-08T00:40:55.091Z,96094.56
2022-11-08T00:41:59.746Z,96100.63
2022-11-08T00:43:01.881Z,96092.09
2022-11-08T00:44:07.344Z,96101.63
2022-11-08T00:45:09.799Z,96086.38
2022-11-08T00:46:14.472Z,96095.06
2022-11-08T00:47:21.694Z,96095.22
2022-11-08T00:48:23.793Z,96096.22
2022-11-08T00:49:28.472Z,96091.16
2022-11-08T00:50:30.500Z,96086.81
2022-11-08T00:51:35.302Z,96088.50
2022-11-08T00:52:37.359Z,96086.91
2022-11-08T00:53:43.097Z,96091.16
2022-11-08T00:54:45.100Z,96084.44
2022-11-08T00:55:49.681Z,96087.03
2022-11-08T00:56:51.888Z,96087.09
2022-11-08T00:58:00.537Z,96084.50
2022-11-08T00:59:02.825Z,96085.34
2022-11-08T01:00:08.481Z,96092.25
2022-11-08T01:01:12.172Z,96084.53
2022-11-08T01:02:17.071Z,96080.25
2022-11-08T01:03:22.003Z,96085.44
2022-11-08T01:04:26.723Z,96084.69
2022-11-08T01:05:28.766Z,96086.34
2022-11-08T01:06:33.364Z,96082.88
2022-11-08T01:07:35.384Z,96087.19
2022-11-08T01:08:40.947Z,96079.47
2022-11-08T01:09:45.561Z,96081.13
2022-11-08T01:10:49.541Z,96081.13
2022-11-08T01:11:54.135Z,96081.13
2022-11-08T01:12:56.148Z,96078.56
2022-11-08T01:14:02.981Z,96076.84
2022-11-08T01:15:08.226Z,96080.31
2022-11-08T01:16:15.557Z,96078.63
2022-11-08T01:17:17.545Z,96079.47
2022-11-08T01:18:24.802Z,96080.38
2022-11-08T01:19:29.564Z,96081.31
2022-11-08T01:20:31.714Z,96082.19
2022-11-08T01:21:36.457Z,96078.81
2022-11-08T01:22:38.478Z,96078.00
2022-11-08T01:23:45.381Z,96078.09
2022-11-08T01:24:47.382Z,96076.41
2022-11-08T01:25:53.040Z,96068.75
2022-11-08T01:26:55.054Z,96072.22
2022-11-08T01:27:59.694Z,96068.06
2022-11-08T01:29:04.427Z,96072.31
2022-11-08T01:30:08.314Z,96066.34
2022-11-08T01:31:15.049Z,96066.34
2022-11-08T01:32:17.058Z,96058.66
2022-11-08T01:33:24.295Z,96060.38
2022-11-08T01:34:28.962Z,96065.50
2022-11-08T01:35:31.353Z,96058.66
2022-11-08T01:36:36.252Z,96059.56
2022-11-08T01:37:38.304Z,96049.31
2022-11-08T01:38:43.744Z,96057.94
2022-11-08T01:39:46.014Z,96053.78
2022-11-08T01:40:51.428Z,96047.88
2022-11-08T01:41:56.051Z,96053.03
2022-11-08T01:42:58.244Z,96052.19
2022-11-08T01:44:03.424Z,96045.47
2022-11-08T01:45:08.429Z,96044.59
2022-11-08T01:46:41.180Z,96046.38
2022-11-08T01:47:43.176Z,96037.88
2022-11-08T01:48:55.681Z,96043.91
2022-11-08T01:50:03.128Z,96035.31
2022-11-08T01:51:08.298Z,96042.09
2022-11-08T01:52:30.456Z,96042.94
2022-11-08T01:53:32.571Z,96038.69
2022-11-08T01:54:42.650Z,96041.19
2022-11-08T01:55:47.752Z,96031.84
2022-11-08T01:56:50.068Z,96038.72
2022-11-08T01:57:59.550Z,96031.00
2022-11-08T01:59:04.249Z,96030.09
2022-11-08T02:00:13.076Z,96035.97
2022-11-08T02:01:15.182Z,96029.03
2022-11-08T02:02:21.216Z,96033.19
2022-11-08T02:03:26.122Z,96026.28
2022-11-08T02:04:30.834Z,96027.09
2022-11-08T02:05:37.115Z,96027.09
2022-11-08T02:06:39.327Z,96029.63
2022-11-08T02:07:44.454Z,96023.72
2022-11-08T02:08:46.623Z,96026.28
2022-11-08T02:09:51.394Z,96022.03
2022-11-08T02:10:54.219Z,96016.91
2022-11-08T02:11:59.746Z,96017.78
2022-11-08T02:13:04.989Z,96015.22
2022-11-08T02:14:10.892Z,96015.22
2022-11-08T02:15:14.880Z,96017.78
2022-11-08T02:16:19.852Z,96017.78
2022-11-08T02:17:24.554Z,96010.94
2022-11-08T02:18:30.929Z,96016.13
2022-11-08T02:19:43.220Z,96011.00
2022-11-08T02:20:54.726Z,96016.06
2022-11-08T02:22:05.415Z,96014.41
2022-11-08T02:23:14.498Z,96014.50
2022-11-08T02:24:21.971Z,96012.91
2022-11-08T02:25:24.056Z,96015.38
2022-11-08T02:26:32.626Z,96011.16
2022-11-08T02:27:37.202Z,96012.91
2022-11-08T02:28:39.775Z,96012.00
2022-11-08T02:29:44.806Z,96012.84
2022-11-08T02:30:46.931Z,96006.88
2022-11-08T02:31:53.900Z,96000.91
2022-11-08T02:32:56.253Z,96001.75
2022-11-08T02:34:00.961Z,96001.75
2022-11-08T02:35:06.681Z,95997.47
2022-11-08T02:36:14.794Z,96000.91
2022-11-08T02:37:20.342Z,95991.50
2022-11-08T02:38:25.662Z,95991.47
2022-11-08T02:39:30.754Z,95994.91
2022-11-08T02:40:48.196Z,95992.38
2022-11-08T02:41:50.215Z,95996.75
2022-11-08T02:42:54.843Z,95995.06
2022-11-08T02:43:57.494Z,95995.13
2022-11-08T02:45:02.263Z,95988.34
2022-11-08T02:46:04.672Z,95985.78
2022-11-08T02:47:09.356Z,95981.56
2022-11-08T02:48:11.811Z,95988.44
2022-11-08T02:49:16.449Z,95981.56
2022-11-08T02:50:18.565Z,95982.44
2022-11-08T02:51:23.253Z,95980.75
2022-11-08T02:52:25.295Z,95990.19
2022-11-08T02:53:30.100Z,95986.84
2022-11-08T02:54:34.817Z,95986.84
2022-11-08T02:55:39.919Z,95988.53
2022-11-08T02:56:41.931Z,95985.97
2022-11-08T02:57:46.519Z,95980.81
2022-11-08T02:58:48.490Z,95981.63
2022-11-08T02:59:53.097Z,95980.75
2022-11-08T03:00:55.161Z,95973.91
2022-11-08T03:02:00.015Z,95975.53
2022-11-08T03:03:02.243Z,95972.91
2022-11-08T03:04:07.255Z,95970.41
2022-11-08T03:05:09.587Z,95973.78
2022-11-08T03:06:14.309Z,95972.91
2022-11-08T03:07:24.537Z,95964.34
2022-11-08T03:08:26.900Z,95966.09
2022-11-08T03:09:31.509Z,95967.84
2022-11-08T03:10:36.120Z,95967.84
2022-11-08T03:11:40.778Z,95962.66
2022-11-08T03:12:43.152Z,95968.66
2022-11-08T03:13:47.811Z,95962.72
2022-11-08T03:14:53.344Z,95967.00
2022-11-08T03:15:55.372Z,95966.19
2022-11-08T03:17:00.018Z,95965.38
2022-11-08T03:18:02.677Z,95962.88
2022-11-08T03:19:07.301Z,95962.88
2022-11-08T03:20:10.772Z,95961.22
2022-11-08T03:21:15.385Z,95958.72
2022-11-08T03:22:17.503Z,95961.34
2022-11-08T03:23:22.120Z,95958.00
2022-11-08T03:24:26.748Z,95965.72
2022-11-08T03:25:29.184Z,95966.63
2022-11-08T03:26:36.940Z,95961.59
2022-11-08T03:27:39.552Z,95963.34
2022-11-08T03:28:44.265Z,95955.78
2022-11-08T03:29:46.643Z,95963.47
2022-11-08T03:30:53.823Z,95958.44
2022-11-08T03:31:55.882Z,95964.47
2022-11-08T03:33:00.649Z,95962.00
2022-11-08T03:34:02.844Z,95953.53
2022-11-08T03:35:08.298Z,95956.91
2022-11-08T03:36:10.509Z,95953.53
2022-11-08T03:37:15.095Z,95956.97
2022-11-08T03:38:17.650Z,95959.53
2022-11-08T03:39:22.419Z,95960.38
2022-11-08T03:40:25.239Z,95957.84
2022-11-08T03:41:29.903Z,95956.19
2022-11-08T03:42:34.857Z,95960.50
2022-11-08T03:43:39.515Z,95953.81
2022-11-08T03:44:41.993Z,95963.28
2022-11-08T03:45:48.187Z,95962.47
2022-11-08T03:46:52.815Z,95965.91
2022-11-08T03:47:54.931Z,95960.84
2022-11-08T03:48:59.781Z,95965.16
2022-11-08T03:50:01.826Z,95951.44
2022-11-08T03:51:07.211Z,95949.72
2022-11-08T03:52:09.251Z,95945.50
2022-11-08T03:53:13.843Z,95952.34
2022-11-08T03:54:16.088Z,95945.59
2022-11-08T03:55:22.357Z,95955.09
2022-11-08T03:56:27.017Z,95956.88
2022-11-08T03:57:29.088Z,95956.06
2022-11-08T03:58:36.284Z,95956.00
2022-11-08T03:59:38.330Z,95955.19
2022-11-08T04:00:43.086Z,95949.19
2022-11-08T04:01:45.287Z,95959.38
2022-11-08T04:02:50.088Z,95958.56
2022-11-08T04:03:52.119Z,95957.75
2022-11-08T04:04:56.870Z,95958.47
2022-11-08T04:06:00.488Z,95953.38
2022-11-08T04:07:05.211Z,95953.34
2022-11-08T04:08:09.968Z,95954.03
2022-11-08T04:09:12.020Z,95957.47
2022-11-08T04:10:18.178Z,95954.09
2022-11-08T04:11:35.328Z,95948.91
2022-11-08T04:12:56.981Z,95948.16
2022-11-08T04:14:16.614Z,95945.53
2022-11-08T04:15:25.116Z,95954.19
2022-11-08T04:16:29.803Z,95952.50
2022-11-08T04:17:46.689Z,95955.94
2022-11-08T04:19:03.776Z,95950.88
2022-11-08T04:20:22.241Z,95954.28
2022-11-08T04:21:24.307Z,95945.81
2022-11-08T04:22:28.934Z,95948.38
2022-11-08T04:23:32.184Z,95948.44
2022-11-08T04:24:36.825Z,95945.75
2022-11-08T04:25:39.122Z,95949.28
2022-11-08T04:26:44.051Z,95945.91
2022-11-08T04:27:46.561Z,95947.56
2022-11-08T04:28:51.195Z,95954.41
2022-11-08T04:29:55.780Z,95951.78
2022-11-08T04:31:03.057Z,95948.31
2022-11-08T04:32:05.607Z,95948.28
2022-11-08T04:33:11.016Z,95947.47
2022-11-08T04:34:15.638Z,95940.63
2022-11-08T04:35:17.675Z,95938.97
2022-11-08T04:36:22.867Z,95944.09
2022-11-08T04:37:27.513Z,95939.81
2022-11-08T04:38:30.232Z,95932.13
2022-11-08T04:39:34.850Z,95935.59
2022-11-08T04:40:36.899Z,95930.47
2022-11-08T04:41:41.754Z,95931.31
2022-11-08T04:42:44.229Z,95935.50
2022-11-08T04:43:49.629Z,95930.38
2022-11-08T04:44:51.668Z,95932.09
2022-11-08T04:46:02.168Z,95932.09
2022-11-08T04:47:06.843Z,95932.13
2022-11-08T04:48:10.596Z,95922.75
2022-11-08T04:49:15.452Z,95929.56
2022-11-08T04:50:17.642Z,95927.75
2022-11-08T04:51:26.846Z,95926.03
2022-11-08T04:52:28.889Z,95928.66
2022-11-08T04:53:33.862Z,95928.72
2022-11-08T04:54:35.864Z,95927.88
2022-11-08T04:55:40.501Z,95924.44
2022-11-08T04:56:42.900Z,95926.97
2022-11-08T04:57:47.502Z,95919.28
2022-11-08T04:58:53.625Z,95920.88
2022-11-08T04:59:55.618Z,95922.53
2022-11-08T05:01:05.717Z,95925.06
2022-11-08T05:02:07.879Z,95927.59
2022-11-08T05:03:12.655Z,95924.13
2022-11-08T05:04:14.744Z,95921.56
2022-11-08T05:05:19.530Z,95919.81
2022-11-08T05:06:23.562Z,95912.91
2022-11-08T05:07:28.186Z,95918.91
2022-11-08T05:08:30.621Z,95913.69
2022-11-08T05:09:35.330Z,95913.56
2022-11-08T05:10:37.328Z,95909.25
2022-11-08T05:11:42.002Z,95909.25
2022-11-08T05:12:44.090Z,95911.75
2022-11-08T05:13:49.494Z,95912.56
2022-11-08T05:14:51.523Z,95917.69
2022-11-08T05:15:56.172Z,95908.34
2022-11-08T05:17:00.900Z,95910.94
2022-11-08T05:18:05.587Z,95900.75
2022-11-08T05:19:12.906Z,95897.38
2022-11-08T05:20:30.613Z,95904.22
2022-11-08T05:21:47.716Z,95904.28
2022-11-08T05:23:04.890Z,95900.97
2022-11-08T05:24:12.490Z,95901.91
2022-11-08T05:25:14.586Z,95905.38
2022-11-08T05:26:20.232Z,95901.16
2022-11-08T05:27:22.249Z,95903.78
2022-11-08T05:28:26.969Z,95902.16
2022-11-08T05:29:29.162Z,95903.03
2022-11-08T05:30:33.788Z,95900.59
2022-11-08T05:31:35.865Z,95902.34
2022-11-08T05:32:43.035Z,95902.38
2022-11-08T05:33:48.296Z,95899.81
2022-11-08T05:34:50.305Z,95899.75
2022-11-08T05:35:55.333Z,95903.97
2022-11-08T05:36:57.395Z,95906.41
2022-11-08T05:38:02.040Z,95903.72
2022-11-08T05:39:06.765Z,95901.06
2022-11-08T05:40:10.574Z,95911.25
2022-11-08T05:41:17.866Z,95903.56
2022-11-08T05:42:20.622Z,95899.31
2022-11-08T05:43:25.199Z,95893.31
2022-11-08T05:44:27.323Z,95896.63
2022-11-08T05:45:32.058Z,95894.13
2022-11-08T05:46:34.552Z,95889.00
2022-11-08T05:47:39.160Z,95890.72
2022-11-08T05:48:48.761Z,95892.41
2022-11-08T05:49:50.762Z,95894.97
2022-11-08T05:50:55.820Z,95892.34
2022-11-08T05:51:58.145Z,95889.75
2022-11-08T05:53:03.292Z,95895.72
2022-11-08T05:54:05.940Z,95899.00
2022-11-08T05:55:11.873Z,95894.72
2022-11-08T05:56:14.396Z,95895.47
2022-11-08T05:57:22.100Z,95900.59
2022-11-08T05:58:26.903Z,95892.06
2022-11-08T05:59:28.898Z,95897.19
2022-11-08T06:00:33.500Z,95901.41
2022-11-08T06:01:35.882Z,95885.81
2022-11-08T06:02:40.653Z,95893.31
2022-11-08T06:03:48.355Z,95892.72
2022-11-08T06:04:50.454Z,95893.44
2022-11-08T06:05:55.125Z,95888.22
2022-11-08T06:06:57.184Z,95894.06
2022-11-08T06:08:01.869Z,95893.97
2022-11-08T06:09:06.674Z,95887.91
2022-11-08T06:10:09.884Z,95881.34
2022-11-08T06:11:16.212Z,95887.69
2022-11-08T06:12:18.243Z,95889.19
2022-11-08T06:13:22.811Z,95888.16
2022-11-08T06:14:25.612Z,95887.81
2022-11-08T06:15:30.707Z,95892.06
2022-11-08T06:16:35.740Z,95889.38
2022-11-08T06:17:38.038Z,95893.59
2022-11-08T06:18:43.360Z,95884.91
2022-11-08T06:19:47.972Z,95884.91
2022-11-08T06:20:52.755Z,95886.59
2022-11-08T06:21:54.958Z,95891.72
2022-11-08T06:22:59.661Z,95878.72
2022-11-08T06:24:01.802Z,95881.19
2022-11-08T06:25:07.585Z,95884.53
2022-11-08T06:26:10.260Z,95887.06
2022-11-08T06:27:15.861Z,95874.09
2022-11-08T06:28:17.964Z,95879.13
2022-11-08T06:29:22.605Z,95885.84
2022-11-08T06:30:24.592Z,95874.69
2022-11-08T06:31:29.547Z,95877.16
2022-11-08T06:32:31.599Z,95878.81
2022-11-08T06:33:36.897Z,95889.09
2022-11-08T06:34:41.695Z,95884.91
2022-11-08T06:35:48.945Z,95882.38
2022-11-08T06:36:51.147Z,95879.81
2022-11-08T06:38:00.573Z,95878.16
2022-11-08T06:39:07.027Z,95873.88
2022-11-08T06:40:14.283Z,95882.41
2022-11-08T06:41:19.617Z,95884.16
2022-11-08T06:42:24.976Z,95881.66
2022-11-08T06:43:27.450Z,95884.16
2022-11-08T06:44:32.726Z,95885.84
2022-11-08T06:45:37.200Z,95881.47
2022-11-08T06:46:41.887Z,95888.06
2022-11-08T06:47:43.924Z,95887.03
2022-11-08T06:48:48.596Z,95886.94
2022-11-08T06:49:50.995Z,95886.06
2022-11-08T06:50:58.336Z,95883.38
2022-11-08T06:52:02.936Z,95882.38
2022-11-08T06:53:11.127Z,95879.75
2022-11-08T06:54:17.571Z,95875.44
2022-11-08T06:55:22.474Z,95881.31
2022-11-08T06:56:27.100Z,95871.75
2022-11-08T06:57:29.131Z,95884.50
2022-11-08T06:58:34.579Z,95886.84
2022-11-08T06:59:40.206Z,95875.63
2022-11-08T07:00:42.577Z,95875.47
2022-11-08T07:01:47.427Z,95877.03
2022-11-08T07:02:53.083Z,95880.19
2022-11-08T07:03:57.879Z,95873.97
2022-11-08T07:04:59.958Z,95872.75
2022-11-08T07:06:08.436Z,95862.16
2022-11-08T07:07:13.288Z,95866.06
2022-11-08T07:08:17.084Z,95873.25
2022-11-08T07:09:25.403Z,95869.44
2022-11-08T07:10:29.814Z,95865.59
2022-11-08T07:11:34.519Z,95863.56
2022-11-08T07:12:36.711Z,95867.53
2022-11-08T07:13:41.767Z,95870.22
2022-11-08T07:14:47.335Z,95876.88
2022-11-08T07:15:49.859Z,95871.47
2022-11-08T07:16:54.553Z,95870.84
2022-11-08T07:18:00.499Z,95864.16
2022-11-08T07:19:05.231Z,95870.56
2022-11-08T07:20:08.796Z,95863.78
2022-11-08T07:21:16.214Z,95859.53
2022-11-08T07:22:18.266Z,95868.03
2022-11-08T07:23:23.488Z,95863.59
2022-11-08T07:24:28.423Z,95865.97
2022-11-08T07:25:31.232Z,95863.97
2022-11-08T07:26:36.001Z,95867.88
2022-11-08T07:27:37.996Z,95864.06
2022-11-08T07:28:43.162Z,95866.44
2022-11-08T07:29:48.133Z,95868.06
2022-11-08T07:30:50.205Z,95877.13
2022-11-08T07:31:54.918Z,95869.41
2022-11-08T07:32:57.473Z,95871.06
2022-11-08T07:34:02.176Z,95869.25
2022-11-08T07:35:04.910Z,95869.13
2022-11-08T07:36:10.038Z,95867.16
2022-11-08T07:37:17.313Z,95873.84
2022-11-08T07:38:19.492Z,95863.38
2022-11-08T07:39:24.110Z,95861.47
2022-11-08T07:40:28.782Z,95862.25
2022-11-08T07:41:33.457Z,95862.06
2022-11-08T07:43:04.697Z,95861.84
2022-11-08T07:44:01.301Z,95867.56
2022-11-08T07:45:04.017Z,95863.78
2022-11-08T07:46:08.650Z,95866.69
2022-11-08T07:47:10.657Z,95868.47
2022-11-08T07:48:16.533Z,95873.47
2022-11-08T07:49:21.449Z,95870.59
2022-11-08T07:50:23.472Z,95870.72
2022-11-08T07:51:28.079Z,95867.34
2022-11-08T07:52:32.814Z,95866.72
2022-11-08T07:53:37.531Z,95866.41
2022-11-08T07:54:42.149Z,95871.06
2022-11-08T07:55:49.029Z,95873.44
2022-11-08T07:56:53.757Z,95872.22
2022-11-08T07:58:02.142Z,95856.75
2022-11-08T07:59:06.881Z,95866.66
2022-11-08T08:00:10.504Z,95864.56
2022-11-08T08:01:15.134Z,95863.34
2022-11-08T08:02:17.438Z,95869.75
2022-11-08T08:03:23.440Z,95866.50
2022-11-08T08:04:25.847Z,95868.72
2022-11-08T08:05:31.272Z,95880.03
2022-11-08T08:06:36.292Z,95874.28
2022-11-08T08:07:41.232Z,95873.38
2022-11-08T08:08:45.930Z,95866.66
2022-11-08T08:09:48.000Z,95870.41
2022-11-08T08:10:52.693Z,95870.66
2022-11-08T08:11:57.681Z,95864.06
2022-11-08T08:13:03.587Z,95868.69
2022-11-08T08:14:08.166Z,95863.31
2022-11-08T08:15:13.841Z,95862.09
2022-11-08T08:16:18.540Z,95864.72
2022-11-08T08:17:20.557Z,95865.50
2022-11-08T08:18:25.195Z,95859.66
2022-11-08T08:19:29.954Z,95863.50
2022-11-08T08:20:35.684Z,95861.16
2022-11-08T08:21:40.359Z,95854.00
2022-11-08T08:22:51.864Z,95856.75
2022-11-08T08:23:56.552Z,95852.19
2022-11-08T08:25:03.184Z,95857.00
2022-11-08T08:26:08.483Z,95851.69
2022-11-08T08:27:11.663Z,95860.25
2022-11-08T08:28:16.348Z,95855.88
2022-11-08T08:29:21.005Z,95851.06
2022-11-08T08:30:27.262Z,95849.47
2022-11-08T08:31:31.926Z,95853.22
2022-11-08T08:32:34.523Z,95858.31
2022-11-08T08:33:39.869Z,95852.91
2022-11-08T08:34:42.086Z,95858.16
2022-11-08T08:35:46.904Z,95854.69
2022-11-08T08:36:51.524Z,95855.22
2022-11-08T08:37:58.370Z,95853.41
2022-11-08T08:39:02.986Z,95841.78
2022-11-08T08:40:06.453Z,95846.34
2022-11-08T08:41:11.248Z,95844.00
2022-11-08T08:42:13.362Z,95837.06
2022-11-08T08:43:18.367Z,95826.03
2022-11-08T08:44:23.159Z,95821.06
2022-11-08T08:45:25.236Z,95820.63
2022-11-08T08:46:30.096Z,95821.97
2022-11-08T08:47:32.122Z,95817.94
2022-11-08T08:48:38.791Z,95814.53
2022-11-08T08:49:41.571Z,95814.91
2022-11-08T08:50:46.334Z,95816.91
2022-11-08T08:51:51.290Z,95812.13
2022-11-08T08:53:00.202Z,95815.28
2022-11-08T08:54:04.813Z,95809.56
2022-11-08T08:55:07.758Z,95811.59
2022-11-08T08:56:12.532Z,95806.81
2022-11-08T08:57:14.531Z,95807.41
2022-11-08T08:58:19.175Z,95811.16
2022-11-08T09:02:14.915Z,95816.84
2022-11-08T09:03:20.098Z,95806.22
2022-11-08T09:04:25.565Z,95806.09
2022-11-08T09:05:30.436Z,95812.53
2022-11-08T09:06:37.999Z,95813.53
2022-11-08T09:07:43.379Z,95829.47
2022-11-08T09:08:50.723Z,95826.09
2022-11-08T09:09:52.737Z,95824.94
2022-11-08T09:10:58.429Z,95824.75
2022-11-08T09:12:03.121Z,95817.19
2022-11-08T09:13:08.148Z,95826.50
2022-11-08T09:14:13.029Z,95821.19
2022-11-08T09:15:15.155Z,95821.16
2022-11-08T09:16:19.784Z,95821.50
2022-11-08T09:17:21.950Z,95825.81
2022-11-08T09:18:26.638Z,95829.41
2022-11-08T09:19:31.272Z,95822.06
2022-11-08T09:20:33.304Z,95821.94
2022-11-08T09:21:37.978Z,95823.50
2022-11-08T09:22:43.158Z,95826.69
2022-11-08T09:23:50.415Z,95831.91
2022-11-08T09:24:55.126Z,95831.88
2022-11-08T09:26:00.495Z,95825.53
2022-11-08T09:27:05.073Z,95820.03
2022-11-08T09:28:10.270Z,95816.22
2022-11-08T09:29:12.714Z,95815.84
2022-11-08T09:30:17.523Z,95814.06
2022-11-08T09:31:22.197Z,95819.16
2022-11-08T09:32:39.736Z,95819.75
2022-11-08T09:33:52.950Z,95835.38
2022-11-08T09:34:55.253Z,95840.00
2022-11-08T09:36:01.288Z,95844.38
2022-11-08T09:37:05.987Z,95846.22
2022-11-08T09:38:08.028Z,95846.91
2022-11-08T09:39:16.483Z,95824.75
2022-11-08T09:40:22.353Z,95827.59
2022-11-08T09:41:42.857Z,95829.84
2022-11-08T09:42:56.888Z,95825.28
2022-11-08T09:44:17.681Z,95841.56
2022-11-08T09:45:27.601Z,95833.84
2022-11-08T09:46:41.513Z,95841.41
2022-11-08T09:47:52.036Z,95843.13
2022-11-08T09:48:59.633Z,95848.50
2022-11-08T09:50:10.064Z,95840.81
2022-11-08T09:51:18.200Z,95840.69
2022-11-08T09:52:24.971Z,95838.13
2022-11-08T09:53:37.643Z,95842.72
2022-11-08T09:54:46.684Z,95840.66
2022-11-08T09:55:55.154Z,95840.16
2022-11-08T09:57:04.376Z,95841.97
2022-11-08T09:58:23.244Z,95840.06
2022-11-08T09:59:37.945Z,95850.53
2022-11-08T10:00:43.544Z,95849.91
2022-11-08T10:01:48.316Z,95853.19
2022-11-08T10:02:50.499Z,95855.13
2022-11-08T10:03:58.213Z,95848.75
2022-11-08T10:05:05.887Z,95841.09
2022-11-08T10:06:34.961Z,95850.72
2022-11-08T10:07:46.374Z,95857.97
2022-11-08T10:09:02.361Z,95859.13
2022-11-08T10:10:37.227Z,95855.19
2022-11-08T10:11:55.234Z,95858.88
2022-11-08T10:13:10.965Z,95857.25
2022-11-08T10:14:39.835Z,95856.88
2022-11-08T10:15:57.252Z,95856.81
2022-11-08T10:17:11.972Z,95864.81
2022-11-08T10:18:32.169Z,95859.63
2022-11-08T10:20:05.296Z,95868.72
2022-11-08T10:21:22.127Z,95865.59
2022-11-08T10:22:32.097Z,95859.44
2022-11-08T10:23:45.677Z,95865.19
2022-11-08T10:24:55.035Z,95858.56
2022-11-08T10:26:05.202Z,95854.53
2022-11-08T10:27:17.661Z,95861.28
2022-11-08T10:28:25.061Z,95860.13
2022-11-08T10:29:35.385Z,95856.59
2022-11-08T10:30:44.076Z,95839.16
2022-11-08T10:31:50.675Z,95855.44
2022-11-08T10:32:57.692Z,95848.75
2022-11-08T10:34:06.308Z,95848.91
2022-11-08T10:35:24.691Z,95837.06
2022-11-08T10:36:34.795Z,95854.69
2022-11-08T10:37:41.536Z,95844.31
2022-11-08T10:38:53.987Z,95844.41
2022-11-08T10:40:04.897Z,95843.47
2022-11-08T10:41:21.464Z,95836.22
2022-11-08T10:42:37.276Z,95841.88
2022-11-08T10:43:45.341Z,95837.72
2022-11-08T10:44:50.505Z,95838.06
2022-11-08T10:45:52.873Z,95835.59
2022-11-08T10:47:02.175Z,95847.63
2022-11-08T10:48:04.842Z,95849.97
2022-11-08T10:49:19.596Z,95842.50
2022-11-08T10:50:34.763Z,95851.59
2022-11-08T10:51:39.541Z,95851.56
2022-11-08T10:52:48.257Z,95840.41
2022-11-08T10:53:53.016Z,95844.03
2022-11-08T10:54:56.696Z,95840.72
2022-11-08T10:56:06.342Z,95839.03
2022-11-08T10:57:13.111Z,95838.91
2022-11-08T10:58:35.770Z,95848.31
2022-11-08T10:59:37.986Z,95841.75
2022-11-08T11:00:42.930Z,95842.22
2022-11-08T11:01:53.525Z,95842.78
2022-11-08T11:02:58.249Z,95833.94
2022-11-08T11:04:27.484Z,95839.28
2022-11-08T11:05:34.763Z,95828.34
2022-11-08T11:06:36.876Z,95832.59
2022-11-08T11:07:41.573Z,95830.53
2022-11-08T11:08:52.798Z,95830.00
2022-11-08T11:09:55.181Z,95834.38
2022-11-08T11:11:24.382Z,95836.34
2022-11-08T11:12:36.935Z,95834.75
2022-11-08T11:13:41.814Z,95829.66
2022-11-08T11:14:44.094Z,95830.09
2022-11-08T11:15:51.337Z,95827.72
2022-11-08T11:17:00.892Z,95829.84
2022-11-08T11:18:03.920Z,95818.75
2022-11-08T11:19:09.809Z,95822.94
2022-11-08T11:20:22.860Z,95826.22
2022-11-08T11:21:28.169Z,95818.97
2022-11-08T11:22:35.768Z,95818.25
2022-11-08T11:23:47.187Z,95825.38
2022-11-08T11:24:52.913Z,95823.59
2022-11-08T11:25:57.771Z,95822.59
2022-11-08T11:27:24.547Z,95827.81
2022-11-08T11:28:32.075Z,95815.38
2022-11-08T11:29:38.021Z,95816.78
2022-11-08T11:30:47.325Z,95822.19
2022-11-08T11:31:51.753Z,95822.78
2022-11-08T11:33:04.741Z,95822.00
2022-11-08T11:34:35.944Z,95817.56
2022-11-08T11:35:46.252Z,95816.66
2022-11-08T11:36:56.427Z,95809.84
2022-11-08T11:38:04.138Z,95824.28
2022-11-08T11:39:16.562Z,95812.22
2022-11-08T11:40:28.891Z,95806.63
2022-11-08T11:41:40.726Z,95817.13
2022-11-08T11:42:54.316Z,95812.88
2022-11-08T11:44:13.591Z,95804.78
2022-11-08T11:45:26.874Z,95797.63
2022-11-08T11:46:41.421Z,95807.56
2022-11-08T11:47:48.083Z,95809.59
2022-11-08T11:49:00.582Z,95807.28
2022-11-08T11:50:15.891Z,95802.81
2022-11-08T11:51:20.608Z,95800.75
2022-11-08T11:52:25.415Z,95796.81
2022-11-08T11:53:38.863Z,95801.50
2022-11-08T11:54:44.315Z,95807.31
2022-11-08T11:56:08.278Z,95807.47
2022-11-08T11:57:26.539Z,95804.16
2022-11-08T11:58:53.725Z,95803.97
2022-11-08T12:00:13.657Z,95799.84
2022-11-08T12:01:24.979Z,95808.72
2022-11-08T12:03:02.903Z,95803.63
2022-11-08T12:04:29.541Z,95804.22
2022-11-08T12:05:52.007Z,95808.75
2022-11-08T12:07:05.594Z,95798.69
2022-11-08T12:08:28.520Z,95796.31
2022-11-08T12:09:44.518Z,95803.63
2022-11-08T12:11:03.024Z,95801.16
2022-11-08T12:12:23.190Z,95791.88
2022-11-08T12:13:36.488Z,95799.66
2022-11-08T12:14:51.958Z,95788.50
2022-11-08T12:16:04.057Z,95785.75
2022-11-08T12:17:23.338Z,95794.78
2022-11-08T12:18:43.530Z,95797.19
2022-11-08T12:20:00.163Z,95792.34
2022-11-08T12:21:13.672Z,95787.31
2022-11-08T12:22:39.394Z,95786.19
2022-11-08T12:24:04.462Z,95794.34
2022-11-08T12:25:13.672Z,95795.59
2022-11-08T12:26:27.109Z,95787.09
2022-11-08T12:27:41.582Z,95785.22
2022-11-08T12:28:55.168Z,95787.97
2022-11-08T12:30:06.362Z,95795.13
2022-11-08T12:31:24.780Z,95789.19
2022-11-08T12:32:54.896Z,95793.06
2022-11-08T12:34:10.493Z,95787.63
2022-11-08T12:35:26.142Z,95788.34
2022-11-08T12:36:38.257Z,95792.72
2022-11-08T12:38:07.861Z,95783.16
2022-11-08T12:39:25.581Z,95777.09
2022-11-08T12:40:37.468Z,95774.00
2022-11-08T12:41:50.498Z,95775.38
2022-11-08T12:43:07.951Z,95787.94
2022-11-08T12:44:35.956Z,95790.81
2022-11-08T12:45:58.957Z,95782.38
2022-11-08T12:47:19.237Z,95795.41
2022-11-08T12:48:40.221Z,95795.44
2022-11-08T12:49:58.044Z,95791.41
2022-11-08T12:51:10.334Z,95789.69
2022-11-08T12:52:26.037Z,95786.72
2022-11-08T12:53:51.437Z,95789.75
2022-11-08T12:55:01.027Z,95784.34
2022-11-08T12:56:08.524Z,95790.69
2022-11-08T12:57:16.512Z,95788.41
2022-11-08T12:58:34.336Z,95786.19
2022-11-08T12:59:43.029Z,95784.66
2022-11-08T13:00:52.494Z,95785.06
2022-11-08T13:01:58.706Z,95788.53
2022-11-08T13:03:22.450Z,95780.44
2022-11-08T13:04:56.267Z,95790.44
2022-11-08T13:06:10.013Z,95779.81
2022-11-08T13:07:37.299Z,95779.66
2022-11-08T13:08:52.870Z,95772.97
2022-11-08T13:10:04.852Z,95767.41
2022-11-08T13:11:15.178Z,95768.91